This is the latest recevied weather packets stored in our database for station/object KE2HEH. If no packets are shown the sender has not sent any weather packets the latest 1 day(s).
| Time | Temp. | Humidity | Pressure | Rain* | Wind** | Luminosity | Snow |
|---|---|---|---|---|---|---|---|
| 1777987887 | 12.22° C | 95% | 1012.8 hPa | 0 mm | 3.58 m/s, 202° | 532 W/m² | - |
| 1777987583 | 12.22° C | 95% | 1012.5 hPa | 0 mm | 4.02 m/s, 215° | 560 W/m² | - |
| 1777987281 | 12.22° C | 95% | 1013 hPa | 0 mm | 3.13 m/s, 204° | 561 W/m² | - |
| 1777986978 | 12.22° C | 96% | 1012.8 hPa | 0 mm | 3.13 m/s, 214° | 518 W/m² | - |
| 1777986676 | 12.22° C | 96% | 1012.8 hPa | 0 mm | 3.58 m/s, 193° | 481 W/m² | - |
| 1777986373 | 12.22° C | 96% | 1012.7 hPa | 0 mm | 2.68 m/s, 200° | 459 W/m² | - |
| 1777986072 | 12.22° C | 96% | 1012.8 hPa | 0 mm | 1.79 m/s, 198° | 490 W/m² | - |
| 1777985768 | 12.22° C | 96% | 1012.5 hPa | 0 mm | 2.68 m/s, 209° | 466 W/m² | - |
| 1777985465 | 12.22° C | 96% | 1012.6 hPa | 0 mm | 3.58 m/s, 210° | 455 W/m² | - |
| 1777985161 | 12.22° C | 96% | 1012.6 hPa | 0 mm | 3.13 m/s, 189° | 441 W/m² | - |
| 1777984857 | 11.67° C | 96% | 1012.4 hPa | 0 mm | 2.68 m/s, 197° | 419 W/m² | - |
| 1777984554 | 11.67° C | 96% | 1012.5 hPa | 0 mm | 3.13 m/s, 200° | 389 W/m² | - |
| 1777984250 | 11.67° C | 96% | 1012.6 hPa | 0 mm | 2.68 m/s, 193° | 367 W/m² | - |
| 1777983947 | 11.67° C | 96% | 1012.4 hPa | 0 mm | 4.02 m/s, 196° | 369 W/m² | - |
| 1777983644 | 11.67° C | 96% | 1012.5 hPa | 0 mm | 2.68 m/s, 189° | 312 W/m² | - |
| 1777983341 | 11.67° C | 96% | 1012.4 hPa | 0 mm | 3.13 m/s, 170° | 275 W/m² | - |
| 1777983038 | 11.67° C | 96% | 1012.5 hPa | 0 mm | 3.13 m/s, 196° | 317 W/m² | - |
| 1777982734 | 11.67° C | 96% | 1012.4 hPa | 0 mm | 2.68 m/s, 183° | 316 W/m² | - |
| 1777982430 | 11.67° C | 96% | 1012.6 hPa | 0 mm | 0.45 m/s, 211° | 134 W/m² | - |
| 1777982124 | 11.67° C | 96% | 1012.4 hPa | 0 mm | 0.89 m/s, 210° | 134 W/m² | - |
| 1777981822 | 11.67° C | 96% | 1012.6 hPa | 0 mm | 0.89 m/s, 208° | 115 W/m² | - |
| 1777981519 | 11.67° C | 96% | 1012.6 hPa | 0 mm | 0.45 m/s, 212° | 121 W/m² | - |
| 1777981215 | 11.67° C | 96% | 1012.5 hPa | 0 mm | 1.79 m/s, 213° | 116 W/m² | - |
| 1777980912 | 11.67° C | 96% | 1012.6 hPa | 0 mm | 0.89 m/s, 210° | 185 W/m² | - |
| 1777980609 | 11.67° C | 97% | 1012.6 hPa | 0 mm | 0.89 m/s, 200° | 115 W/m² | - |
* Rain latest hour (hover to see other rain measurements)
** Current wind speed in m/s (hover to see current wind gust speed)